createdAt,value
2018-07-23T00:01:57.131Z,6.43
2018-07-23T00:04:27.686Z,7.00
2018-07-23T00:06:58.591Z,6.50
2018-07-23T00:09:28.936Z,6.17
2018-07-23T00:11:59.312Z,6.27
2018-07-23T00:14:30.213Z,6.13
2018-07-23T00:17:00.299Z,6.50
2018-07-23T00:19:30.543Z,8.67
2018-07-23T00:22:01.761Z,6.43
2018-07-23T00:24:32.091Z,5.67
2018-07-23T00:27:03.023Z,6.20
2018-07-23T00:29:33.989Z,5.90
2018-07-23T00:32:05.168Z,6.50
2018-07-23T00:34:35.756Z,5.73
2018-07-23T00:37:06.664Z,5.83
2018-07-23T00:39:37.279Z,5.77
2018-07-23T00:42:08.746Z,6.20
2018-07-23T00:44:39.412Z,5.77
2018-07-23T00:47:10.331Z,6.00
2018-07-23T00:49:41.491Z,5.93
2018-07-23T00:52:11.587Z,5.67
2018-07-23T00:54:41.797Z,5.17
2018-07-23T00:57:12.168Z,5.83
2018-07-23T00:59:42.888Z,6.27
2018-07-23T01:02:13.579Z,5.77
2018-07-23T01:04:44.828Z,6.10
2018-07-23T01:07:15.559Z,6.43
2018-07-23T01:09:45.899Z,6.67
2018-07-23T01:12:31.776Z,6.17
2018-07-23T01:15:02.400Z,6.33
2018-07-23T01:17:33.107Z,5.63
2018-07-23T01:20:04.072Z,6.27
2018-07-23T01:22:34.698Z,6.13
2018-07-23T01:25:05.431Z,5.97
2018-07-23T01:27:36.063Z,6.67
2018-07-23T01:30:06.884Z,6.40
2018-07-23T01:32:37.803Z,5.90
2018-07-23T01:35:08.442Z,6.00
2018-07-23T01:37:39.403Z,5.97
2018-07-23T01:40:10.272Z,6.23
2018-07-23T01:42:40.352Z,6.73
2018-07-23T01:45:11.031Z,6.80
2018-07-23T01:47:41.426Z,6.60
2018-07-23T01:50:12.579Z,7.20
2018-07-23T01:52:42.944Z,7.10
2018-07-23T01:55:13.816Z,6.70
2018-07-23T01:57:44.195Z,6.43
2018-07-23T02:00:15.111Z,6.60
2018-07-23T02:02:46.083Z,6.77
2018-07-23T02:05:16.684Z,7.30
2018-07-23T02:07:47.375Z,6.17
2018-07-23T02:10:18.044Z,5.90
2018-07-23T02:12:48.146Z,6.03
2018-07-23T02:15:18.688Z,6.00
2018-07-23T02:17:48.779Z,7.03
2018-07-23T02:20:19.331Z,5.30
2018-07-23T02:22:50.177Z,6.33
2018-07-23T02:25:20.223Z,6.33
2018-07-23T02:27:51.038Z,6.47
2018-07-23T02:30:21.616Z,6.13
2018-07-23T02:32:51.985Z,6.47
2018-07-23T02:35:22.624Z,5.73
2018-07-23T02:37:53.511Z,6.00
2018-07-23T02:40:23.835Z,6.03
2018-07-23T02:42:54.935Z,5.90
2018-07-23T02:45:26.255Z,6.10
2018-07-23T02:47:58.176Z,6.07
2018-07-23T02:50:28.504Z,6.50
2018-07-23T02:52:59.199Z,7.13
2018-07-23T02:55:30.064Z,6.97
2018-07-23T02:58:00.421Z,6.87
2018-07-23T03:00:30.989Z,6.20
2018-07-23T03:03:01.612Z,6.40
2018-07-23T03:05:31.945Z,6.37
2018-07-23T03:08:02.817Z,7.30
2018-07-23T03:10:33.411Z,7.53
2018-07-23T03:13:04.038Z,7.50
2018-07-23T03:15:35.107Z,7.10
2018-07-23T03:18:05.745Z,6.53
2018-07-23T03:20:36.391Z,6.37
2018-07-23T03:23:07.816Z,6.00
2018-07-23T03:25:38.423Z,6.00
2018-07-23T03:28:08.827Z,6.37
2018-07-23T03:30:39.688Z,6.80
2018-07-23T03:33:10.058Z,6.97
2018-07-23T03:35:40.967Z,4.90
2018-07-23T03:38:11.656Z,5.87
2018-07-23T03:40:42.227Z,6.30
2018-07-23T03:43:12.930Z,5.70
2018-07-23T03:45:43.251Z,6.73
2018-07-23T03:48:13.613Z,7.30
2018-07-23T03:50:44.544Z,6.70
2018-07-23T03:53:15.152Z,5.53
2018-07-23T03:55:46.456Z,6.07
2018-07-23T03:58:16.824Z,5.80
2018-07-23T04:00:47.141Z,6.30
2018-07-23T04:03:18.004Z,5.67
2018-07-23T04:05:48.331Z,6.80
2018-07-23T04:08:19.199Z,6.80
2018-07-23T04:10:50.047Z,6.10
2018-07-23T04:13:20.303Z,6.00
2018-07-23T04:15:50.780Z,6.17
2018-07-23T04:18:21.387Z,6.43
2018-07-23T04:20:52.013Z,6.80
2018-07-23T04:23:22.952Z,6.60
2018-07-23T04:25:53.295Z,6.40
2018-07-23T04:28:23.695Z,6.10
2018-07-23T04:30:54.360Z,6.07
2018-07-23T04:33:24.720Z,6.07
2018-07-23T04:35:55.043Z,6.03
2018-07-23T04:38:25.400Z,6.60
2018-07-23T04:40:56.036Z,6.67
2018-07-23T04:43:26.428Z,6.70
2018-07-23T04:45:57.006Z,6.40
2018-07-23T04:48:27.704Z,7.10
2018-07-23T04:50:58.340Z,6.97
2018-07-23T04:53:28.655Z,7.00
2018-07-23T04:55:59.245Z,6.83
2018-07-23T04:58:30.132Z,6.57
2018-07-23T05:01:00.788Z,7.20
2018-07-23T05:03:31.395Z,7.30
2018-07-23T05:06:02.021Z,7.80
2018-07-23T05:08:32.435Z,9.00
2018-07-23T05:11:03.723Z,8.13
2018-07-23T05:13:34.592Z,8.17
2018-07-23T05:16:04.962Z,7.17
2018-07-23T05:18:35.731Z,7.63
2018-07-23T05:21:06.062Z,7.27
2018-07-23T05:23:36.725Z,7.17
2018-07-23T05:26:07.589Z,7.20
2018-07-23T05:28:38.411Z,7.47
2018-07-23T05:31:08.772Z,7.20
2018-07-23T05:33:39.167Z,7.80
2018-07-23T05:36:09.928Z,8.63
2018-07-23T05:38:40.016Z,7.63
2018-07-23T05:41:10.635Z,8.23
2018-07-23T05:43:41.571Z,8.23
2018-07-23T05:46:12.548Z,8.07
2018-07-23T05:48:42.608Z,8.10
2018-07-23T05:51:13.087Z,6.83
2018-07-23T05:53:43.684Z,8.00
2018-07-23T05:56:14.232Z,8.67
2018-07-23T05:58:44.941Z,8.37
2018-07-23T06:01:15.455Z,8.07
2018-07-23T06:03:46.609Z,8.37
2018-07-23T06:06:17.052Z,7.97
2018-07-23T06:08:48.531Z,8.20
2018-07-23T06:11:19.136Z,8.13
2018-07-23T06:13:49.801Z,8.47
2018-07-23T06:16:20.996Z,8.33
2018-07-23T06:18:51.309Z,7.53
2018-07-23T06:21:21.512Z,8.13
2018-07-23T06:23:52.128Z,8.30
2018-07-23T06:26:23.013Z,8.30
2018-07-23T06:28:53.631Z,7.97
2018-07-23T06:31:24.292Z,8.83
2018-07-23T06:33:54.692Z,8.63
2018-07-23T06:36:25.680Z,8.90
2018-07-23T06:38:55.748Z,8.80
2018-07-23T06:41:26.190Z,8.53
2018-07-23T06:43:56.803Z,9.00
2018-07-23T06:46:27.773Z,9.70
2018-07-23T06:48:58.127Z,8.50
2018-07-23T06:51:28.694Z,9.57
2018-07-23T06:53:59.372Z,9.70
2018-07-23T06:56:30.159Z,9.90
2018-07-23T06:59:01.210Z,10.40
2018-07-23T07:01:31.655Z,9.17
2018-07-23T07:04:02.005Z,9.57
2018-07-23T07:06:32.332Z,10.37
2018-07-23T07:09:03.056Z,10.07
2018-07-23T07:11:33.980Z,10.07
2018-07-23T07:14:04.404Z,10.10
2018-07-23T07:16:34.451Z,11.13
2018-07-23T07:19:05.218Z,10.07
2018-07-23T07:21:35.593Z,11.23
2018-07-23T07:24:06.064Z,10.87
2018-07-23T07:26:36.904Z,11.07
2018-07-23T07:29:08.436Z,11.23
2018-07-23T07:31:38.774Z,10.47
2018-07-23T07:34:09.471Z,9.53
2018-07-23T07:36:40.692Z,9.83
2018-07-23T07:39:12.883Z,10.33
2018-07-23T07:41:43.217Z,10.20
2018-07-23T07:44:13.844Z,9.60
2018-07-23T07:46:44.380Z,10.07
2018-07-23T07:49:15.323Z,10.37
2018-07-23T07:51:46.147Z,9.03
2018-07-23T07:54:17.175Z,8.43
2018-07-23T07:56:47.791Z,9.43
2018-07-23T07:59:18.728Z,9.77
2018-07-23T08:01:49.987Z,9.93
2018-07-23T08:04:20.660Z,10.10
2018-07-23T08:06:51.224Z,9.97
2018-07-23T08:09:21.429Z,9.83
2018-07-23T08:11:52.624Z,9.00
2018-07-23T08:14:23.882Z,8.98
2018-07-23T08:16:54.818Z,8.70
2018-07-23T08:19:27.659Z,8.70
2018-07-23T08:21:58.631Z,8.93
2018-07-23T08:24:30.002Z,8.23
2018-07-23T08:27:01.253Z,8.40
2018-07-23T08:29:33.052Z,8.68
2018-07-23T08:32:04.730Z,8.60
2018-07-23T08:34:36.011Z,8.30
2018-07-23T08:37:07.177Z,9.95
2018-07-23T08:39:38.663Z,8.75
2018-07-23T08:42:10.008Z,8.63
2018-07-23T08:44:41.429Z,8.90
2018-07-23T08:47:13.251Z,9.60
2018-07-23T08:49:43.847Z,8.40
2018-07-23T08:52:14.915Z,8.40
2018-07-23T08:54:46.168Z,9.98
2018-07-23T08:57:17.278Z,8.25
2018-07-23T08:59:48.575Z,9.08
2018-07-23T09:02:19.541Z,8.50
2018-07-23T09:04:50.816Z,8.85
2018-07-23T09:07:22.283Z,10.15
2018-07-23T09:09:53.435Z,10.28
2018-07-23T09:12:24.336Z,9.43
2018-07-23T09:14:54.952Z,9.53
2018-07-23T09:17:25.877Z,9.17
2018-07-23T09:19:58.097Z,8.97
2018-07-23T09:22:28.722Z,9.53
2018-07-23T09:25:00.316Z,9.23
2018-07-23T09:27:31.078Z,9.50
2018-07-23T09:30:01.675Z,8.03
2018-07-23T09:32:32.571Z,7.40
2018-07-23T09:35:03.699Z,7.37
2018-07-23T09:37:37.064Z,8.37
2018-07-23T09:40:07.962Z,7.37
2018-07-23T09:42:39.092Z,7.60
2018-07-23T09:45:10.024Z,7.37
2018-07-23T09:47:40.897Z,7.20
2018-07-23T09:50:11.499Z,7.33
2018-07-23T09:52:42.209Z,7.10
2018-07-23T09:55:13.948Z,7.12
2018-07-23T09:57:44.866Z,8.63
2018-07-23T10:00:20.099Z,7.67
2018-07-23T10:02:51.293Z,7.08
2018-07-23T10:05:22.201Z,8.95
2018-07-23T10:07:53.805Z,7.25
2018-07-23T10:10:25.443Z,8.18
2018-07-23T10:12:56.693Z,8.95
2018-07-23T10:15:27.940Z,8.45
2018-07-23T10:17:59.228Z,7.85
2018-07-23T10:20:30.351Z,7.33
2018-07-23T10:23:01.531Z,8.85
2018-07-23T10:25:33.017Z,7.78
2018-07-23T10:28:03.951Z,7.58
2018-07-23T10:30:34.735Z,6.83
2018-07-23T10:33:05.971Z,10.85
2018-07-23T10:35:37.340Z,7.15
2018-07-23T10:38:08.256Z,7.15
2018-07-23T10:40:39.144Z,8.20
2018-07-23T10:43:10.144Z,6.10
2018-07-23T10:45:41.098Z,5.85
2018-07-23T10:48:12.312Z,5.60
2018-07-23T10:50:43.540Z,6.17
2018-07-23T10:53:14.141Z,6.17
2018-07-23T10:55:44.987Z,5.42
2018-07-23T10:58:15.230Z,5.93
2018-07-23T11:00:45.868Z,6.63
2018-07-23T11:03:17.092Z,6.47
2018-07-23T11:05:47.998Z,7.67
2018-07-23T11:08:18.352Z,6.60
2018-07-23T11:10:49.008Z,5.57
2018-07-23T11:13:19.464Z,7.50
2018-07-23T11:15:50.735Z,5.63
2018-07-23T11:18:22.291Z,6.33
2018-07-23T11:20:53.477Z,5.97
2018-07-23T11:23:24.580Z,5.63
2018-07-23T11:25:55.252Z,5.70
2018-07-23T11:28:25.360Z,5.43
2018-07-23T11:30:56.292Z,5.73
2018-07-23T11:33:27.214Z,5.33
2018-07-23T11:35:57.915Z,7.58
2018-07-23T11:38:28.637Z,6.43
2018-07-23T11:40:59.535Z,6.23
2018-07-23T11:43:30.744Z,5.30
2018-07-23T11:46:01.581Z,7.60
2018-07-23T11:48:31.956Z,5.80
2018-07-23T11:51:02.741Z,6.15
2018-07-23T11:53:34.044Z,5.90
2018-07-23T11:56:04.815Z,5.80
2018-07-23T11:58:35.432Z,6.17
2018-07-23T12:01:07.562Z,5.77
2018-07-23T12:03:38.728Z,5.92
2018-07-23T12:06:10.185Z,5.75
2018-07-23T12:08:41.864Z,6.58
2018-07-23T12:11:12.638Z,8.85
2018-07-23T12:13:44.051Z,6.67
2018-07-23T12:16:14.263Z,6.20
2018-07-23T12:18:45.515Z,6.60
2018-07-23T12:21:16.623Z,6.28
2018-07-23T12:23:47.848Z,6.28
2018-07-23T12:26:18.732Z,5.80
2018-07-23T12:28:49.675Z,6.08
2018-07-23T12:31:20.735Z,6.30
2018-07-23T12:33:52.223Z,6.42
2018-07-23T12:36:23.407Z,5.72
2018-07-23T12:38:55.167Z,6.33
2018-07-23T12:41:26.056Z,5.33
2018-07-23T12:43:57.313Z,5.60
2018-07-23T12:46:33.507Z,5.08
2018-07-23T12:49:09.759Z,5.45
2018-07-23T12:51:40.607Z,4.93
2018-07-23T12:54:11.466Z,4.92
2018-07-23T12:56:42.583Z,4.95
2018-07-23T12:59:13.684Z,6.33
2018-07-23T13:01:45.268Z,5.35
2018-07-23T13:04:21.468Z,5.53
2018-07-23T13:06:52.919Z,6.25
2018-07-23T13:09:24.910Z,5.22
2018-07-23T13:11:55.670Z,5.30
2018-07-23T13:14:28.095Z,7.95
2018-07-23T13:16:59.212Z,4.97
2018-07-23T13:19:30.357Z,4.40
2018-07-23T13:22:00.706Z,4.55
2018-07-23T13:24:30.939Z,5.13
2018-07-23T13:27:02.152Z,5.28
2018-07-23T13:29:33.145Z,4.40
2018-07-23T13:32:04.536Z,5.70
2018-07-23T13:34:35.583Z,4.47
2018-07-23T13:37:07.032Z,4.83
2018-07-23T13:39:38.195Z,5.60
2018-07-23T13:42:09.735Z,4.50
2018-07-23T13:44:40.652Z,5.90
2018-07-23T13:47:11.700Z,4.78
2018-07-23T13:49:42.056Z,4.57
2018-07-23T13:52:13.743Z,4.40
2018-07-23T13:54:44.417Z,4.40
2018-07-23T13:57:16.583Z,6.53
2018-07-23T13:59:46.654Z,4.20
2018-07-23T14:02:17.740Z,6.40
2018-07-23T14:04:48.815Z,3.50
2018-07-23T14:07:19.725Z,5.08
2018-07-23T14:09:51.124Z,4.25
2018-07-23T14:12:21.752Z,4.23
2018-07-23T14:14:52.655Z,4.20
2018-07-23T14:17:23.832Z,4.22
2018-07-23T14:19:54.188Z,3.90
2018-07-23T14:22:25.347Z,3.80
2018-07-23T14:24:56.700Z,3.95
2018-07-23T14:27:27.053Z,3.70
2018-07-23T14:29:57.601Z,4.35
2018-07-23T14:32:28.477Z,3.92
2018-07-23T14:35:00.439Z,3.90
2018-07-23T14:37:31.879Z,3.95
2018-07-23T14:40:03.168Z,4.08
2018-07-23T14:42:34.033Z,3.30
2018-07-23T14:45:05.283Z,3.30
2018-07-23T14:47:36.027Z,3.98
2018-07-23T14:50:07.201Z,4.33
2018-07-23T14:52:38.184Z,3.52
2018-07-23T14:55:09.108Z,4.17
2018-07-23T14:57:40.583Z,3.10
2018-07-23T15:00:11.951Z,4.03
2018-07-23T15:02:42.726Z,5.17
2018-07-23T15:05:13.504Z,3.47
2018-07-23T15:07:44.599Z,3.58
2018-07-23T15:10:15.569Z,3.60
2018-07-23T15:12:46.447Z,3.90
2018-07-23T15:15:18.233Z,3.30
2018-07-23T15:17:49.916Z,3.70
2018-07-23T15:20:20.545Z,9.43
2018-07-23T15:22:51.248Z,3.52
2018-07-23T15:25:22.287Z,3.00
2018-07-23T15:27:53.522Z,3.37
2018-07-23T15:30:24.391Z,3.60
2018-07-23T15:32:55.596Z,3.20
2018-07-23T15:35:26.060Z,3.98
2018-07-23T15:37:56.804Z,4.15
2018-07-23T15:40:31.796Z,4.62
2018-07-23T15:43:03.180Z,3.80
2018-07-23T15:45:34.529Z,3.50
2018-07-23T15:48:05.117Z,3.10
2018-07-23T15:50:36.355Z,3.50
2018-07-23T15:53:12.163Z,3.52
2018-07-23T15:55:43.267Z,3.10
2018-07-23T15:58:13.608Z,3.40
2018-07-23T16:00:44.215Z,3.07
2018-07-23T16:03:15.700Z,3.87
2018-07-23T16:05:46.647Z,3.77
2018-07-23T16:08:17.465Z,3.73
2018-07-23T16:10:48.228Z,3.43
2018-07-23T16:13:19.484Z,3.90
2018-07-23T16:15:50.356Z,3.30
2018-07-23T16:18:22.040Z,3.50
2018-07-23T16:20:52.984Z,3.43
2018-07-23T16:23:24.153Z,3.47
2018-07-23T16:25:54.864Z,5.50
2018-07-23T16:28:25.735Z,3.23
2018-07-23T16:30:55.846Z,3.33
2018-07-23T16:33:26.331Z,5.10
2018-07-23T16:35:56.949Z,3.55
2018-07-23T16:38:27.409Z,4.63
2018-07-23T16:40:58.012Z,3.90
2018-07-23T16:43:28.335Z,6.33
2018-07-23T16:45:58.971Z,5.03
2018-07-23T16:48:29.592Z,3.87
2018-07-23T16:51:00.524Z,4.53
2018-07-23T16:53:31.205Z,4.23
2018-07-23T16:56:01.596Z,4.90
2018-07-23T16:58:31.807Z,3.73
2018-07-23T17:01:02.652Z,3.70
2018-07-23T17:03:33.632Z,3.40
2018-07-23T17:06:03.739Z,3.37
2018-07-23T17:08:33.944Z,3.20
2018-07-23T17:11:05.012Z,4.30
2018-07-23T17:13:36.353Z,3.67
2018-07-23T17:16:06.933Z,4.73
2018-07-23T17:18:37.983Z,3.87
2018-07-23T17:21:09.457Z,3.60
2018-07-23T17:23:40.712Z,4.10
2018-07-23T17:26:11.080Z,3.67
2018-07-23T17:28:41.940Z,4.97
2018-07-23T17:31:12.324Z,3.33
2018-07-23T17:33:43.228Z,4.10
2018-07-23T17:36:13.619Z,3.73
2018-07-23T17:38:44.509Z,6.47
2018-07-23T17:41:15.287Z,3.80
2018-07-23T17:43:46.151Z,3.90
2018-07-23T17:46:17.376Z,4.20
2018-07-23T17:48:48.263Z,4.23
2018-07-23T17:51:18.671Z,12.47
2018-07-23T17:53:48.991Z,4.37
2018-07-23T17:56:19.403Z,3.90
2018-07-23T17:58:49.879Z,3.80
2018-07-23T18:01:20.270Z,4.60
2018-07-23T18:03:50.596Z,3.87
2018-07-23T18:06:21.547Z,4.00
2018-07-23T18:08:52.371Z,5.33
2018-07-23T18:11:22.520Z,4.07
2018-07-23T18:13:53.179Z,4.23
2018-07-23T18:16:23.548Z,3.90
2018-07-23T18:18:54.081Z,4.40
2018-07-23T18:21:25.208Z,4.87
2018-07-23T18:23:55.532Z,4.87
2018-07-23T18:26:26.407Z,4.47
2018-07-23T18:28:56.984Z,4.77
2018-07-23T18:31:27.900Z,4.50
2018-07-23T18:33:58.485Z,4.30
2018-07-23T18:36:28.843Z,4.33
2018-07-23T18:38:59.171Z,4.30
2018-07-23T18:41:29.528Z,4.40
2018-07-23T18:43:59.856Z,3.87
2018-07-23T18:46:30.215Z,8.20
2018-07-23T18:49:31.812Z,4.20
2018-07-23T18:52:02.397Z,5.03
2018-07-23T18:54:33.423Z,4.20
2018-07-23T18:57:05.014Z,7.50
2018-07-23T18:59:35.790Z,4.30
2018-07-23T19:02:08.236Z,5.43
2018-07-23T19:04:38.788Z,4.40
2018-07-23T19:07:10.187Z,4.67
2018-07-23T19:09:40.771Z,5.13
2018-07-23T19:12:11.764Z,4.30
2018-07-23T19:14:42.340Z,5.00
2018-07-23T19:17:14.461Z,5.03
2018-07-23T19:19:45.100Z,5.23
2018-07-23T19:22:15.463Z,7.80
2018-07-23T19:24:45.491Z,5.43
2018-07-23T19:27:16.264Z,5.50
2018-07-23T19:29:46.813Z,6.20
2018-07-23T19:32:17.123Z,9.17
2018-07-23T19:34:47.332Z,4.63
2018-07-23T19:37:17.687Z,4.90
2018-07-23T19:39:48.610Z,7.60
2018-07-23T19:42:19.269Z,4.77
2018-07-23T19:44:50.318Z,5.40
2018-07-23T19:47:20.383Z,5.80
2018-07-23T19:49:50.856Z,5.37
2018-07-23T19:52:22.032Z,5.13
2018-07-23T19:54:52.424Z,5.50
2018-07-23T19:57:23.336Z,4.90
2018-07-23T19:59:53.959Z,6.63
2018-07-23T20:02:24.657Z,8.33
2018-07-23T20:04:54.999Z,9.80
2018-07-23T20:07:25.898Z,9.43
2018-07-23T20:09:55.922Z,8.33
2018-07-23T20:12:25.883Z,7.30
2018-07-23T20:14:56.340Z,7.03
2018-07-23T20:17:26.932Z,5.90
2018-07-23T20:19:57.304Z,5.47
2018-07-23T20:22:27.888Z,5.87
2018-07-23T20:24:58.832Z,5.37
2018-07-23T20:27:29.799Z,5.37
2018-07-23T20:30:00.187Z,4.67
2018-07-23T20:32:30.580Z,4.47
2018-07-23T20:35:01.554Z,6.70
2018-07-23T20:37:32.701Z,4.70
2018-07-23T20:40:03.427Z,5.20
2018-07-23T20:42:33.759Z,5.40
2018-07-23T20:45:04.499Z,4.53
2018-07-23T20:47:34.829Z,5.13
2018-07-23T20:50:05.550Z,4.33
2018-07-23T20:52:36.159Z,5.17
2018-07-23T20:55:07.103Z,5.20
2018-07-23T20:57:37.748Z,7.57
2018-07-23T21:00:09.696Z,5.00
2018-07-23T21:02:40.026Z,5.40
2018-07-23T21:05:10.967Z,5.33
2018-07-23T21:07:41.411Z,6.20
2018-07-23T21:10:12.023Z,4.97
2018-07-23T21:12:43.156Z,6.70
2018-07-23T21:15:13.522Z,5.30
2018-07-23T21:17:44.296Z,5.37
2018-07-23T21:20:14.543Z,6.30
2018-07-23T21:22:45.164Z,5.00
2018-07-23T21:25:15.572Z,5.27
2018-07-23T21:27:45.802Z,5.20
2018-07-23T21:30:16.487Z,5.57
2018-07-23T21:32:46.554Z,4.97
2018-07-23T21:35:17.040Z,5.13
2018-07-23T21:37:47.615Z,5.73
2018-07-23T21:40:18.449Z,5.27
2018-07-23T21:42:49.123Z,4.83
2018-07-23T21:45:19.980Z,5.00
2018-07-23T21:47:50.602Z,4.77
2018-07-23T21:50:21.542Z,5.20
2018-07-23T21:52:52.191Z,5.50
2018-07-23T21:55:26.024Z,5.07
2018-07-23T21:57:56.586Z,4.60
2018-07-23T22:00:26.952Z,7.10
2018-07-23T22:02:57.279Z,6.13
2018-07-23T22:05:27.937Z,5.67
2018-07-23T22:07:58.280Z,5.77
2018-07-23T22:10:28.634Z,4.90
2018-07-23T22:12:59.489Z,6.27
2018-07-23T22:15:30.272Z,5.13
2018-07-23T22:18:00.327Z,5.20
2018-07-23T22:20:30.903Z,5.43
2018-07-23T22:23:02.024Z,5.60
2018-07-23T22:25:32.342Z,6.20
2018-07-23T22:28:02.707Z,5.17
2018-07-23T22:30:33.107Z,5.13
2018-07-23T22:33:03.452Z,5.30
2018-07-23T22:35:33.803Z,5.47
2018-07-23T22:38:04.135Z,5.50
2018-07-23T22:40:34.753Z,5.43
2018-07-23T22:43:05.089Z,5.33
2018-07-23T22:45:35.319Z,5.67
2018-07-23T22:48:05.943Z,5.83
2018-07-23T22:50:36.626Z,5.50
2018-07-23T22:53:07.648Z,6.97
2018-07-23T22:55:38.352Z,7.20
2018-07-23T22:58:09.016Z,5.77
2018-07-23T23:00:39.716Z,5.40
2018-07-23T23:03:10.303Z,5.97
2018-07-23T23:05:40.903Z,5.97
2018-07-23T23:08:11.528Z,6.00
2018-07-23T23:10:41.932Z,5.13
2018-07-23T23:13:12.835Z,5.50
2018-07-23T23:15:43.431Z,6.33
2018-07-23T23:18:13.635Z,4.83
2018-07-23T23:20:43.996Z,6.00
2018-07-23T23:23:14.567Z,5.73
2018-07-23T23:25:44.936Z,6.13
2018-07-23T23:28:15.258Z,6.27
2018-07-23T23:30:45.919Z,5.80
2018-07-23T23:33:16.808Z,5.90
2018-07-23T23:35:47.439Z,6.13
2018-07-23T23:38:18.116Z,5.90
2018-07-23T23:40:48.504Z,5.47
2018-07-23T23:43:19.449Z,8.57
2018-07-23T23:45:49.812Z,5.43
2018-07-23T23:48:20.389Z,5.70
2018-07-23T23:50:50.931Z,5.23
2018-07-23T23:53:21.851Z,6.13
2018-07-23T23:55:52.208Z,5.57
2018-07-23T23:58:22.531Z,6.13
